createdAt,value
2024-04-30T00:03:44.535Z,101101.86
2024-04-30T00:08:47.493Z,101104.33
2024-04-30T00:13:52.114Z,101105.73
2024-04-30T00:18:55.158Z,101107.21
2024-04-30T00:23:58.180Z,101109.25
2024-04-30T00:29:01.375Z,101112.73
2024-04-30T00:34:04.462Z,101116.77
2024-04-30T00:39:09.509Z,101120.02
2024-04-30T00:44:12.779Z,101123.59
2024-04-30T00:49:15.920Z,101129.01
2024-04-30T00:54:19.199Z,101123.55
2024-04-30T00:59:22.176Z,101130.91
2024-04-30T01:04:25.194Z,101134.88
2024-04-30T01:09:28.158Z,101141.31
2024-04-30T01:14:31.245Z,101144.16
2024-04-30T01:19:34.197Z,101149.07
2024-04-30T01:24:37.337Z,101142.06
2024-04-30T01:29:40.344Z,101140.42
2024-04-30T01:34:43.386Z,101135.14
2024-04-30T01:39:46.536Z,101140.70
2024-04-30T01:44:49.402Z,101141.23
2024-04-30T01:49:52.416Z,101137.98
2024-04-30T01:54:55.384Z,101134.90
2024-04-30T01:59:58.445Z,101132.78
2024-04-30T02:05:07.848Z,101130.96
2024-04-30T02:10:17.499Z,101127.48
2024-04-30T02:15:20.451Z,101125.70
2024-04-30T02:20:23.366Z,101124.29
2024-04-30T02:25:26.353Z,101123.63
2024-04-30T02:30:48.132Z,101116.73
2024-04-30T02:35:51.088Z,101111.11
2024-04-30T02:40:54.216Z,101111.67
2024-04-30T02:45:57.184Z,101111.00
2024-04-30T02:51:04.323Z,101111.27
2024-04-30T02:56:07.454Z,101113.36
2024-04-30T03:01:14.577Z,101111.41
2024-04-30T03:06:17.741Z,101110.05
2024-04-30T03:11:20.994Z,101109.80
2024-04-30T03:16:24.316Z,101111.48
2024-04-30T03:21:27.249Z,101113.48
2024-04-30T03:26:30.202Z,101110.45
2024-04-30T03:31:33.146Z,101115.66
2024-04-30T03:36:36.136Z,101113.84
2024-04-30T03:41:39.076Z,101116.05
2024-04-30T03:46:42.082Z,101121.60
2024-04-30T03:51:45.108Z,101123.16
2024-04-30T03:56:48.238Z,101124.71
2024-04-30T04:01:51.554Z,101130.29
2024-04-30T04:06:55.590Z,101134.85
2024-04-30T04:12:17.533Z,101142.36
2024-04-30T04:17:21.043Z,101142.85
2024-04-30T04:22:24.090Z,101146.30
2024-04-30T04:27:27.122Z,101145.30
2024-04-30T04:32:31.620Z,101147.38
2024-04-30T04:37:35.934Z,101153.34
2024-04-30T04:42:38.887Z,101160.64
2024-04-30T04:47:41.942Z,101162.04
2024-04-30T04:52:45.016Z,101165.02
2024-04-30T04:57:47.977Z,101162.91
2024-04-30T05:02:50.943Z,101164.31
2024-04-30T05:07:54.019Z,101161.75
2024-04-30T05:12:57.615Z,101163.72
2024-04-30T05:18:00.593Z,101164.48
2024-04-30T05:23:03.832Z,101169.93
2024-04-30T05:28:07.170Z,101169.36
2024-04-30T05:33:13.186Z,101168.35
2024-04-30T05:38:16.202Z,101171.95
2024-04-30T05:43:19.973Z,101170.27
2024-04-30T05:48:23.226Z,101171.98
2024-04-30T05:53:26.215Z,101167.31
2024-04-30T05:58:29.159Z,101169.77
2024-04-30T06:03:32.192Z,101167.65
2024-04-30T06:08:36.621Z,101171.79
2024-04-30T06:13:44.328Z,101175.09
2024-04-30T06:18:47.387Z,101173.52
2024-04-30T06:23:50.356Z,101172.30
2024-04-30T06:28:54.116Z,101172.91
2024-04-30T06:33:57.526Z,101175.23
2024-04-30T06:39:00.809Z,101176.83
2024-04-30T06:44:03.932Z,101175.70
2024-04-30T06:49:07.584Z,101173.71
2024-04-30T06:54:10.509Z,101178.80
2024-04-30T06:59:13.411Z,101177.40
2024-04-30T07:04:16.482Z,101179.13
2024-04-30T07:09:19.661Z,101180.02
2024-04-30T07:14:22.711Z,101180.99
2024-04-30T07:19:28.392Z,101183.05
2024-04-30T07:24:31.395Z,101175.48
2024-04-30T07:29:34.386Z,101173.44
2024-04-30T07:34:37.596Z,101168.84
2024-04-30T07:39:40.828Z,101171.30
2024-04-30T07:44:43.803Z,101170.22
2024-04-30T07:49:46.901Z,101173.55
2024-04-30T07:54:49.865Z,101170.08
2024-04-30T07:59:52.867Z,101164.66
2024-04-30T08:04:55.822Z,101162.70
2024-04-30T08:09:58.952Z,101160.53
2024-04-30T08:15:04.368Z,101157.86
2024-04-30T08:20:08.219Z,101158.61
2024-04-30T08:25:11.108Z,101155.60
2024-04-30T08:30:14.526Z,101155.17
2024-04-30T08:35:18.010Z,101149.59
2024-04-30T08:40:21.030Z,101148.20
2024-04-30T08:45:27.258Z,101146.73
2024-04-30T08:50:33.743Z,101148.45
2024-04-30T08:55:40.071Z,101146.20
2024-04-30T09:00:45.106Z,101143.82
2024-04-30T09:05:49.240Z,101142.88
2024-04-30T09:10:54.870Z,101140.81
2024-04-30T09:16:02.213Z,101140.85
2024-04-30T09:21:16.453Z,101136.20
2024-04-30T09:26:20.680Z,101133.40
2024-04-30T09:31:23.602Z,101135.33
2024-04-30T09:36:26.642Z,101127.90
2024-04-30T09:41:31.900Z,101126.68
2024-04-30T09:46:36.543Z,101120.15
2024-04-30T09:51:42.355Z,101112.51
2024-04-30T09:56:48.264Z,101111.58
2024-04-30T10:01:53.653Z,101109.13
2024-04-30T10:06:58.455Z,101103.96
2024-04-30T10:12:01.472Z,101096.67
2024-04-30T10:17:05.745Z,101092.02
2024-04-30T10:22:14.680Z,101082.84
2024-04-30T10:27:25.413Z,101081.84
2024-04-30T10:32:28.414Z,101077.20
2024-04-30T10:37:31.869Z,101075.46
2024-04-30T10:42:36.603Z,101075.46
2024-04-30T10:47:39.675Z,101073.06
2024-04-30T10:52:42.851Z,101068.70
2024-04-30T10:57:45.755Z,101064.70
2024-04-30T11:02:56.350Z,101063.14
2024-04-30T11:08:00.272Z,101055.79
2024-04-30T11:13:04.954Z,101049.98
2024-04-30T11:18:08.175Z,101041.79
2024-04-30T11:23:11.212Z,101030.87
2024-04-30T11:28:14.349Z,101029.79
2024-04-30T11:33:17.460Z,101029.02
2024-04-30T11:38:22.850Z,101026.07
2024-04-30T11:43:25.806Z,101021.63
2024-04-30T11:48:34.233Z,101014.52
2024-04-30T11:53:38.726Z,101011.10
2024-04-30T11:58:42.245Z,101002.30
2024-04-30T12:03:45.223Z,101002.02
2024-04-30T12:08:48.352Z,101003.19
2024-04-30T12:13:52.431Z,100995.17
2024-04-30T12:18:59.839Z,100993.63
2024-04-30T12:24:02.743Z,100989.30
2024-04-30T12:29:05.771Z,100992.88
2024-04-30T12:34:08.874Z,100988.49
2024-04-30T12:39:11.907Z,100985.18
2024-04-30T12:44:15.232Z,100981.86
2024-04-30T12:49:18.288Z,100976.39
2024-04-30T12:54:21.333Z,100972.87
2024-04-30T12:59:24.224Z,100964.43
2024-04-30T13:04:27.363Z,100950.60
2024-04-30T13:09:32.714Z,100942.48
2024-04-30T13:14:35.860Z,100940.70
2024-04-30T13:19:39.322Z,100935.05
2024-04-30T13:24:42.377Z,100933.36
2024-04-30T13:29:45.336Z,100929.45
2024-04-30T13:34:48.747Z,100926.14
2024-04-30T13:39:51.748Z,100919.54
2024-04-30T13:44:54.788Z,100917.30
2024-04-30T13:49:58.043Z,100915.60
2024-04-30T13:55:01.143Z,100912.28
2024-04-30T14:00:04.705Z,100905.45
2024-04-30T14:05:07.821Z,100903.67
2024-04-30T14:10:11.026Z,100899.75
2024-04-30T14:15:14.417Z,100895.44
2024-04-30T14:20:19.478Z,100892.61
2024-04-30T14:25:22.710Z,100890.20
2024-04-30T14:30:25.767Z,100896.80
2024-04-30T14:35:48.756Z,100896.77
2024-04-30T14:40:51.854Z,100890.20
2024-04-30T14:45:54.851Z,100887.37
2024-04-30T14:50:57.902Z,100879.92
2024-04-30T14:56:00.822Z,100880.42
2024-04-30T15:01:04.034Z,100874.91
2024-04-30T15:06:07.089Z,100867.89
2024-04-30T15:11:24.270Z,100867.14
2024-04-30T15:16:27.544Z,100860.64
2024-04-30T15:21:30.532Z,100862.52
2024-04-30T15:26:38.643Z,100855.00
2024-04-30T15:31:41.793Z,100848.46
2024-04-30T15:36:44.917Z,100845.75
2024-04-30T15:41:48.927Z,100843.98
2024-04-30T15:46:51.919Z,100840.17
2024-04-30T15:51:54.889Z,100831.56
2024-04-30T15:57:02.877Z,100829.80
2024-04-30T16:02:06.832Z,100826.58
2024-04-30T16:07:10.326Z,100820.02
2024-04-30T16:12:13.340Z,100822.02
2024-04-30T16:17:16.737Z,100814.65
2024-04-30T16:22:19.968Z,100812.20
2024-04-30T16:27:22.979Z,100813.47
2024-04-30T16:32:26.082Z,100810.43
2024-04-30T16:37:29.022Z,100807.48
2024-04-30T16:42:31.983Z,100806.83
2024-04-30T16:47:34.978Z,100810.00
2024-04-30T16:52:38.101Z,100807.80
2024-04-30T16:57:41.137Z,100801.78
2024-04-30T17:02:44.050Z,100799.14
2024-04-30T17:07:46.925Z,100798.33
2024-04-30T17:12:51.070Z,100794.66
2024-04-30T17:17:55.669Z,100790.05
2024-04-30T17:22:58.983Z,100788.81
2024-04-30T17:28:01.840Z,100789.84
2024-04-30T17:33:05.994Z,100791.88
2024-04-30T17:38:10.935Z,100788.04
2024-04-30T17:43:14.026Z,100788.00
2024-04-30T17:48:17.320Z,100787.23
2024-04-30T17:53:22.410Z,100788.16
2024-04-30T17:58:25.383Z,100789.50
2024-04-30T18:03:28.609Z,100791.21
2024-04-30T18:08:31.715Z,100790.59
2024-04-30T18:13:35.042Z,100784.36
2024-04-30T18:18:38.016Z,100782.65
2024-04-30T18:23:40.958Z,100784.52
2024-04-30T18:28:51.255Z,100784.29
2024-04-30T18:33:55.636Z,100783.10
2024-04-30T18:39:01.566Z,100785.63
2024-04-30T18:44:04.827Z,100793.64
2024-04-30T18:49:08.268Z,100792.24
2024-04-30T18:54:11.871Z,100789.12
2024-04-30T18:59:15.488Z,100794.75
2024-04-30T19:04:18.724Z,100798.95
2024-04-30T19:09:22.665Z,100798.55
2024-04-30T19:14:25.875Z,100802.10
2024-04-30T19:19:28.974Z,100801.63
2024-04-30T19:24:32.024Z,100801.41
2024-04-30T19:29:37.971Z,100802.74
2024-04-30T19:34:41.230Z,100799.56
2024-04-30T19:39:44.537Z,100804.66
2024-04-30T19:44:47.703Z,100803.73
2024-04-30T19:49:50.908Z,100804.38
2024-04-30T19:54:53.950Z,100804.39
2024-04-30T19:59:57.187Z,100807.05
2024-04-30T20:05:00.410Z,100815.65
2024-04-30T20:10:04.045Z,100815.41
2024-04-30T20:15:07.847Z,100812.31
2024-04-30T20:20:11.320Z,100816.03
2024-04-30T20:25:14.790Z,100812.09
2024-04-30T20:30:18.088Z,100815.48
2024-04-30T20:35:21.257Z,100815.86
2024-04-30T20:40:24.425Z,100818.54
2024-04-30T22:24:48.539Z,100808.46
2024-04-30T22:29:57.819Z,100804.64
2024-04-30T22:35:04.792Z,100801.21
2024-04-30T22:40:08.331Z,100805.13
2024-04-30T22:45:11.457Z,100798.63
2024-04-30T22:50:14.461Z,100796.43
2024-04-30T22:55:17.741Z,100790.09
2024-04-30T23:00:20.800Z,100789.77
2024-04-30T23:05:23.993Z,100785.42
2024-04-30T23:10:27.136Z,100783.73
2024-04-30T23:15:30.255Z,100780.77
2024-04-30T23:20:33.208Z,100777.08
2024-04-30T23:25:36.202Z,100765.58
2024-04-30T23:30:39.137Z,100760.66
2024-04-30T23:35:42.128Z,100759.30
2024-04-30T23:40:45.079Z,100758.32
2024-04-30T23:45:48.159Z,100757.66
2024-04-30T23:50:51.240Z,100756.87
2024-04-30T23:55:54.261Z,100752.06
